This is the latest recevied weather packets stored in our database for station/object PY2CQC-13. If no packets are shown the sender has not sent any weather packets the latest 10 day(s).
| Time | Temp. | Humidity | Pressure | Rain* | Wind** | Luminosity | Snow |
|---|---|---|---|---|---|---|---|
| 1777640525 | 23.89° C | 68% | 1038.1 hPa | - | - | - | - |
| 1777638725 | 22.78° C | 71% | 1037.9 hPa | - | - | - | - |
| 1777636925 | 22.22° C | 72% | 1037.6 hPa | - | - | - | - |
| 1777635125 | 21.67° C | 72% | 1037.4 hPa | - | - | - | - |
| 1777633325 | 21.67° C | 73% | 1037.1 hPa | - | - | - | - |
| 1777631524 | 20.56° C | 76% | 1036.8 hPa | - | - | - | - |
| 1777629724 | 20.56° C | 76% | 1036.4 hPa | - | - | - | - |
| 1777627925 | 20.56° C | 75% | 1035.9 hPa | - | - | - | - |
| 1777626125 | 20.56° C | 76% | 1035.5 hPa | - | - | - | - |
| 1777624325 | 20.56° C | 76% | 1035.1 hPa | - | - | - | - |
| 1777622525 | 20.56° C | 76% | 1034.8 hPa | - | - | - | - |
| 1777620725 | 20.56° C | 76% | 1034.7 hPa | - | - | - | - |
| 1777618924 | 20.56° C | 76% | 1034.7 hPa | - | - | - | - |
| 1777617125 | 21.11° C | 77% | 1034.7 hPa | - | - | - | - |
| 1777615325 | 17.78° C | 90% | 1034.8 hPa | - | - | - | - |
| 1777613525 | 17.78° C | 90% | 1034.8 hPa | - | - | - | - |
| 1777611725 | 17.78° C | 90% | 1035.2 hPa | - | - | - | - |
| 1777609925 | 17.78° C | 89% | 1035.3 hPa | - | - | - | - |
| 1777608124 | 18.33° C | 88% | 1035.3 hPa | - | - | - | - |
| 1777606324 | 18.89° C | 88% | 1035.5 hPa | - | - | - | - |
| 1777604525 | 18.89° C | 88% | 1035.6 hPa | - | - | - | - |
| 1777602725 | 18.89° C | 89% | 1035.6 hPa | - | - | - | - |
| 1777600925 | 19.44° C | 87% | 1035.7 hPa | - | - | - | - |
| 1777599125 | 19.44° C | 87% | 1035.4 hPa | - | - | - | - |
| 1777597325 | 20° C | 87% | 1035.2 hPa | - | - | - | - |
* Rain since midnight (hover to see other rain measurements)
** Current wind speed in m/s (hover to see current wind gust speed)